Country
Station

 

Weather  for  Laramie, Laramie Regional Airport  -  United States    United States

  
11 °C (52 °F)
    
 
 

Current METAR for Laramie, Laramie Regional Airport is :

KLAR 020953Z AUTO 16006KT 10SM CLR 11/02 A3024 RMK AO2 SLP123 T01060017

 

This is a report for Laramie, Laramie Regional Airport - United States.
 
The report was made 23 minutes ago, at 09:53 UTC .
The wind was blowing at a speed of 3.1 meters per second (6.9 miles per hour) from south/southeast (160°).
 
The temperature was 11 °C (52 °F), with a dew-point at 2 °C (36 °F).
The atmospheric pressure was 1024 hPa (30.24 inHg).
The relative humidity was 53.8%.
 
The sky was clear.
 
The overall visibility was 16.1 kilometers (10.0 miles).
 

 
 
 
 

Country :   A   B   C   D   E   F   G   H   I   J   K   L   M   N   O   P   Q   R   S   T   U   V   W   Y   Z

 

Site Info  |  Disclaimer  |  Credits  |  Privacy
Contact us  |  Add to favorites
© 2013-2020 METARs - All rights reserved